Longmire, WA (98397)

1:26 PM PDT on March 26, 2017 (GMT -0700)
nisqually park | | Change Station
Active Advisory: Winter Weather Advisory

Elev 2021 ft 46.74 °N, 121.93 °W | Updated 3 seconds ago

Rain
Rain
36.9 °F
Feels Like 37 °F
N
1.1
Wind Variable Wind from NE

Today
High -- | Low -- °F
--% Chance of Precip.
Yesterday
High -- | Low -- °F
Precip. -- in
Pressure 29.74 in
Visibility 0.2 miles
Clouds
Windchill 37 °F
Dew Point 36 °F
Humidity 98%
Rainfall 0.07 in
Snow Depth Not available.
6:57 AM 7:28 PM
Waning Crescent, 2% visible
SPECI KSMP 261904Z AUTO VRB05KT 1/4SM -SN FZFG VV002 M01/M01 A2974 RMK AO2 SNB02 P0000 T10061006 $
Pressure 29.74 in
Visibility 0.2 miles
Clouds
Windchill 37 °F
Dew Point 36 °F
Humidity 98%
Rainfall 0.07 in
Snow Depth Not available.
6:57 AM 7:28 PM
Waning Crescent, 2% visible
SPECI KSMP 261904Z AUTO VRB05KT 1/4SM -SN FZFG VV002 M01/M01 A2974 RMK AO2 SNB02 P0000 T10061006 $

Get Your Daily Forecast Email!

Thanks for signing up!

Be on the lookout for a verification email in your inbox.

You'll start receiving severe weather alerts in your inbox..

×

10-Day Weather Forecast

Almanac

Astronomy

Mar. 26, 2017 Rise Set
Actual Time
Civil Twilight
Nautical Twilight
Astronomical Twilight
Moon
Length of Visible Light
Length of Day
Tomorrow will be .
, % of the Moon is Illuminated

Today's Extremes

State Highs State Lows

Community

WunderPhotos

Upload Photos

1,962,540 photos uploaded!

WunderBlog® & News

Nearby

Air Quality

  Air Quality AQ Index Pollutant
Not available.

Snow Depth

Station Depth Elevation

Earthquake Activity

City Distance Mag. Time & Date
Minimum magnitude displayed is 2.5.

Earthquake Activity

City Distance Mag. Time & Date
Minimum magnitude displayed is 2.5.

Coastal Water Temperatures

Place Temperature

Stations

Nearby Weather Stations

Station Location Temp. Windchill Dew Point Humidity Wind Precip. Elev Updated Type
                   

Watches & Warnings

Winter Weather Advisory
Issued: 4:00 AM PDT Mar. 26, 2017 – National Weather Service

... Winter Weather Advisory in effect from noon today to 6 am PDT
Monday...

The National Weather Service in Seattle has issued a Winter
Weather Advisory for snow, which is in effect from noon today to
6 am PDT Monday.

* Snow accumulations... 8 to 16 inches above 3500 feet.

* Some affected locations... Paradise on Mount Rainier.

* Main impact... travel around the affected locations could be
slowed.

Precautionary/preparedness actions...

A Winter Weather Advisory for snow means that periods of snow
will cause primarily travel difficulties. Be prepared for snow
covered roads and limited visibilities, and use caution while
driving.